EGPH

Edinburgh Airport

Airport
ICAO code
EGPH
IATA Code
EDI
Summary
ICAO Region
EUR
ICAO Territory
Location

Turnhouse, Scotland

Serving
Edinburgh
Elevation
136 ft
Coordinates
55° 56' 57" N , 3° 21' 31" W
KCC
Metar
Observation
EGPH 250220Z 25006KT CAVOK 06/05 Q1021
Station
Edinburgh Airport
Date/Time
2022-09-25 02:20:00
Wind direction
250°
Wind speed
06 kts
Lowest cloud amount
clouds and visibility OK
Temperature
6°C
Dew point
5°C
Humidity
93%
QNH
1021 hPa
Weather condition
n/a

Description

Domestic and international airport serving the Scottish City of Edinburgh and the surrounding region.

Climatology

Temperate Marine climate/Oceanic climate (Köppen climate classification Cfb). Moderately cool summer and comparatively warm winter with a temperature range of only 14°C. Prevailing south-westerly winds from the Atlantic Ocean.

Runways

Designator Length Width Surface Rops
8/26 799 46 ASP No/No
12/30 1747 46 ASP Yes/Yes
6/24 2560 46 ASP Yes/Yes

SKYbrary Partners:

Safety knowledge contributed by: